Time;durP1;ratioP1;P1;durP2;ratioP2;P2;SDS_P1;SDS_P2;PMS_P1;PMS_P2;Temp;Humidity;BMP_temperature;BMP_pressure;BME280_temperature;BME280_humidity;BME280_pressure;Samples;Min_cycle;Max_cycle;Signal;HPM_P1;HPM_P2
2022/09/30 00:00:34;;;;;;;5.15;3.10;;;8.20;99.90;;;;;;5038006;28;20041;-85
2022/09/30 00:03:01;;;;;;;4.68;2.60;;;8.30;99.90;;;;;;5038555;28;20037;-86
2022/09/30 00:05:28;;;;;;;7.75;3.08;;;8.30;99.90;;;;;;5037752;28;20044;-85
2022/09/30 00:07:54;;;;;;;4.80;2.45;;;8.20;99.90;;;;;;5038404;28;20041;-86
2022/09/30 00:10:21;;;;;;;7.75;3.25;;;8.20;99.90;;;;;;5021409;28;20041;-85
2022/09/30 00:12:49;;;;;;;6.22;2.88;;;8.20;99.90;;;;;;5038477;28;20044;-85
2022/09/30 00:15:17;;;;;;;5.00;3.20;;;8.20;99.90;;;;;;5037533;28;20059;-85
2022/09/30 00:17:43;;;;;;;6.15;3.22;;;8.70;99.90;;;;;;5034640;28;20132;-85
2022/09/30 00:20:10;;;;;;;11.38;3.30;;;8.20;99.90;;;;;;5001772;28;20124;-86
2022/09/30 00:22:37;;;;;;;4.88;2.83;;;8.20;99.90;;;;;;5017900;28;20072;-85
2022/09/30 00:25:03;;;;;;;4.95;2.90;;;8.20;99.90;;;;;;5034039;28;20041;-85
2022/09/30 00:27:30;;;;;;;5.90;3.45;;;8.20;99.90;;;;;;5034223;28;20379;-85
2022/09/30 00:29:57;;;;;;;6.90;3.28;;;8.30;99.90;;;;;;5024891;28;20456;-86
2022/09/30 00:32:23;;;;;;;7.07;3.28;;;8.30;99.90;;;;;;5054021;28;20048;-85
2022/09/30 00:34:50;;;;;;;6.88;3.38;;;8.40;99.90;;;;;;5021374;28;20041;-85
2022/09/30 00:37:17;;;;;;;8.93;3.63;;;8.40;99.90;;;;;;5037509;28;20041;-85
2022/09/30 00:39:43;;;;;;;7.63;3.42;;;8.40;99.90;;;;;;5037670;28;20040;-86
2022/09/30 00:42:13;;;;;;;7.53;3.53;;;8.40;99.90;;;;;;5021346;28;20485;-85
2022/09/30 00:44:52;;;;;;;6.13;3.40;;;8.50;99.90;;;;;;5053949;28;20045;-86
2022/09/30 00:47:40;;;;;;;6.20;3.35;;;8.50;99.90;;;;;;5054006;28;20041;-85
2022/09/30 00:50:19;;;;;;;6.82;3.33;;;8.50;99.90;;;;;;5054066;28;20044;-86
2022/09/30 00:53:08;;;;;;;5.93;3.65;;;8.50;99.90;;;;;;5054010;28;20123;-85
2022/09/30 00:55:35;;;;;;;6.57;3.67;;;8.50;99.90;;;;;;5053409;28;20041;-85
2022/09/30 00:58:05;;;;;;;5.93;3.70;;;8.60;99.90;;;;;;5053933;28;20041;-86
2022/09/30 01:00:32;;;;;;;5.68;3.63;;;8.60;99.90;;;;;;5053423;28;20076;-85
2022/09/30 01:03:00;;;;;;;10.60;3.60;;;8.70;99.90;;;;;;5053815;28;20041;-85
2022/09/30 01:05:30;;;;;;;6.78;3.50;;;8.60;99.90;;;;;;5053441;28;20063;-86
2022/09/30 01:07:59;;;;;;;7.53;3.78;;;8.60;99.90;;;;;;5053637;28;20041;-85
2022/09/30 01:10:26;;;;;;;5.55;3.38;;;8.60;99.90;;;;;;5037525;28;20051;-85
2022/09/30 01:12:53;;;;;;;6.55;3.78;;;8.60;99.90;;;;;;5053568;28;20041;-85
2022/09/30 01:15:27;;;;;;;7.70;3.58;;;8.60;99.90;;;;;;5049335;28;20068;-84
2022/09/30 01:18:12;;;;;;;12.05;4.28;;;8.60;99.90;;;;;;5033738;28;20053;-85
2022/09/30 01:20:47;;;;;;;5.93;3.50;;;8.60;99.90;;;;;;5033482;28;20048;-85
2022/09/30 01:23:36;;;;;;;5.88;3.15;;;8.60;99.90;;;;;;5033513;28;20042;-85
2022/09/30 01:26:26;;;;;;;6.30;3.63;;;8.60;99.90;;;;;;5033595;28;20046;-85
2022/09/30 01:29:05;;;;;;;7.35;3.85;;;8.70;99.90;;;;;;5033685;28;20042;-85
2022/09/30 01:31:51;;;;;;;6.72;3.80;;;8.70;99.90;;;;;;5033298;28;20041;-85
2022/09/30 01:34:24;;;;;;;5.18;3.08;;;8.70;99.90;;;;;;5033530;28;20045;-85
2022/09/30 01:36:53;;;;;;;10.23;3.75;;;8.70;99.90;;;;;;5034904;28;20041;-86
2022/09/30 01:39:55;;;;;;;9.07;4.10;;;8.70;99.90;;;;;;5037454;28;20042;-85
2022/09/30 01:42:46;;;;;;;7.15;3.78;;;8.70;99.90;;;;;;4994892;28;20080;-85
2022/09/30 01:45:17;;;;;;;8.20;4.20;;;8.70;99.90;;;;;;5037506;28;20044;-86
2022/09/30 01:48:12;;;;;;;6.88;3.83;;;8.70;99.90;;;;;;5037426;28;20033;-86
2022/09/30 01:50:49;;;;;;;6.22;3.25;;;8.70;99.90;;;;;;5036857;28;20405;-85
2022/09/30 01:53:27;;;;;;;7.25;3.67;;;8.70;99.90;;;;;;5036899;28;20037;-86
2022/09/30 01:56:07;;;;;;;6.20;3.30;;;8.70;99.90;;;;;;5036867;28;20044;-85
2022/09/30 01:58:42;;;;;;;10.13;3.20;;;8.70;99.90;;;;;;5036850;28;20515;-86
2022/09/30 02:01:17;;;;;;;6.07;3.40;;;8.60;99.90;;;;;;5054641;28;20048;-85
2022/09/30 02:03:50;;;;;;;7.57;3.53;;;8.70;99.90;;;;;;5056425;28;21043;-85
2022/09/30 02:06:25;;;;;;;8.55;4.32;;;8.60;99.90;;;;;;5073234;28;20425;-85
2022/09/30 02:09:21;;;;;;;8.32;3.60;;;8.50;99.90;;;;;;5073388;28;20037;-85
2022/09/30 02:11:47;;;;;;;4.88;3.03;;;8.60;99.90;;;;;;5072532;28;20041;-85
2022/09/30 02:14:22;;;;;;;5.57;3.17;;;8.50;99.90;;;;;;5040315;28;20049;-85
2022/09/30 02:16:58;;;;;;;5.40;3.40;;;8.40;99.90;;;;;;5068725;28;20099;-85
2022/09/30 02:19:39;;;;;;;6.80;3.20;;;8.40;99.90;;;;;;5052783;28;20053;-86
2022/09/30 02:22:23;;;;;;;7.47;3.30;;;8.30;99.90;;;;;;5053021;28;20038;-85
2022/09/30 02:24:54;;;;;;;6.30;3.30;;;8.30;99.90;;;;;;5052677;28;20045;-85
2022/09/30 02:27:26;;;;;;;8.25;3.33;;;8.20;99.90;;;;;;5052909;28;20036;-85
2022/09/30 02:29:57;;;;;;;12.18;3.47;;;8.20;99.90;;;;;;5052222;28;20128;-85
2022/09/30 02:32:34;;;;;;;6.47;3.20;;;8.10;99.90;;;;;;5053434;28;20140;-86
2022/09/30 02:35:27;;;;;;;6.18;3.05;;;8.00;99.90;;;;;;5052419;28;20527;-85
2022/09/30 02:38:04;;;;;;;5.50;3.17;;;7.90;99.90;;;;;;5052451;28;20053;-85
2022/09/30 02:40:43;;;;;;;6.40;3.30;;;7.80;99.90;;;;;;5068859;28;20827;-85
2022/09/30 02:43:10;;;;;;;5.55;2.97;;;7.70;99.90;;;;;;5069172;28;20481;-86
2022/09/30 02:45:49;;;;;;;6.85;3.17;;;7.70;99.90;;;;;;5020385;28;20091;-86
2022/09/30 02:48:44;;;;;;;8.05;3.50;;;7.70;99.90;;;;;;5052154;28;20132;-85
2022/09/30 02:51:53;;;;;;;9.27;3.53;;;7.70;99.90;;;;;;5052037;28;20080;-85
2022/09/30 02:54:54;;;;;;;5.57;3.15;;;7.80;99.90;;;;;;4976668;28;20134;-85
2022/09/30 02:57:57;;;;;;;10.10;3.80;;;7.70;99.90;;;;;;5068731;28;20038;-85
2022/09/30 03:00:25;;;;;;;8.95;3.70;;;7.70;99.90;;;;;;5032341;28;20518;-85
2022/09/30 03:03:13;;;;;;;5.78;3.25;;;7.80;99.90;;;;;;5022323;28;20042;-85
2022/09/30 03:05:40;;;;;;;8.52;3.72;;;7.70;99.90;;;;;;5047334;28;20124;-86
2022/09/30 03:08:09;;;;;;;8.90;3.70;;;7.70;99.90;;;;;;5018862;28;20463;-85
2022/09/30 03:10:36;;;;;;;6.97;3.95;;;7.70;99.90;;;;;;5035303;28;20045;-85
2022/09/30 03:13:06;;;;;;;7.63;3.90;;;7.80;99.90;;;;;;5051665;28;20614;-85
2022/09/30 03:16:01;;;;;;;7.78;4.18;;;7.70;99.90;;;;;;5053678;28;20045;-85
2022/09/30 03:18:44;;;;;;;6.38;3.20;;;7.60;99.90;;;;;;5071717;28;20131;-85
2022/09/30 03:21:39;;;;;;;8.15;3.53;;;7.60;99.90;;;;;;5055451;28;20091;-85
2022/09/30 03:24:12;;;;;;;9.25;3.33;;;7.50;99.90;;;;;;5055290;28;20037;-85
2022/09/30 03:27:15;;;;;;;8.07;3.58;;;7.50;99.90;;;;;;5054823;28;20048;-85
2022/09/30 03:29:45;;;;;;;7.38;3.65;;;7.50;99.90;;;;;;5054813;28;20036;-85
2022/09/30 03:32:36;;;;;;;6.38;3.20;;;7.40;99.90;;;;;;5071418;28;20037;-86
2022/09/30 03:35:10;;;;;;;7.15;3.30;;;7.30;99.90;;;;;;5054767;28;20041;-85
2022/09/30 03:38:02;;;;;;;6.18;3.45;;;7.50;99.90;;;;;;5055014;28;20124;-85
2022/09/30 03:40:56;;;;;;;5.70;3.13;;;7.20;99.90;;;;;;5054457;28;20104;-85
2022/09/30 03:43:31;;;;;;;6.03;3.38;;;7.10;99.90;;;;;;5071224;28;20128;-85
2022/09/30 03:46:07;;;;;;;4.88;2.90;;;7.00;99.90;;;;;;5054360;28;20041;-86
2022/09/30 03:48:36;;;;;;;7.32;3.45;;;7.00;99.90;;;;;;5054819;28;20033;-85
2022/09/30 03:51:06;;;;;;;5.47;3.00;;;6.90;99.90;;;;;;5053903;28;20068;-86
2022/09/30 03:53:41;;;;;;;7.30;3.40;;;6.90;99.90;;;;;;5054231;28;20477;-86
2022/09/30 03:56:08;;;;;;;5.18;2.60;;;6.90;99.90;;;;;;5054953;28;20037;-85
2022/09/30 03:58:39;;;;;;;5.07;3.13;;;6.80;99.90;;;;;;5038547;28;20039;-85
2022/09/30 04:01:05;;;;;;;6.20;3.05;;;6.80;99.90;;;;;;5053748;28;20070;-85
2022/09/30 04:03:34;;;;;;;6.70;2.83;;;7.00;99.90;;;;;;5021802;28;20400;-85
2022/09/30 04:06:01;;;;;;;7.22;3.10;;;7.00;99.90;;;;;;5022002;28;20137;-85
2022/09/30 04:08:28;;;;;;;9.40;2.88;;;6.70;99.90;;;;;;5038129;28;20490;-85
2022/09/30 04:10:55;;;;;;;5.38;2.95;;;6.60;99.90;;;;;;5038033;28;20052;-85
2022/09/30 04:13:22;;;;;;;5.10;3.10;;;6.60;99.90;;;;;;5017968;28;20045;-85
2022/09/30 04:15:53;;;;;;;5.38;3.10;;;6.60;99.90;;;;;;5017979;28;20049;-85
2022/09/30 04:18:20;;;;;;;5.35;2.70;;;6.60;99.90;;;;;;5018237;28;20497;-85
2022/09/30 04:20:47;;;;;;;5.47;2.70;;;6.50;99.90;;;;;;5050545;28;20044;-85
2022/09/30 04:23:13;;;;;;;6.07;2.90;;;6.90;99.90;;;;;;5016739;28;20037;-86
2022/09/30 04:25:40;;;;;;;5.90;2.92;;;6.50;99.90;;;;;;5021709;28;20091;-85
2022/09/30 04:28:07;;;;;;;6.32;3.10;;;6.40;99.90;;;;;;5053676;28;20041;-85
2022/09/30 04:30:36;;;;;;;5.15;2.95;;;6.50;99.90;;;;;;5021846;28;20041;-85
2022/09/30 04:33:02;;;;;;;5.82;3.25;;;6.40;99.90;;;;;;5030103;28;20041;-86
2022/09/30 04:35:29;;;;;;;6.32;3.20;;;7.40;99.90;;;;;;5017859;28;20379;-85
2022/09/30 04:37:56;;;;;;;11.32;3.42;;;6.30;99.90;;;;;;5001352;28;20048;-85
2022/09/30 04:40:23;;;;;;;8.25;3.05;;;6.40;99.90;;;;;;5001996;28;20624;-85
2022/09/30 04:42:49;;;;;;;5.30;2.95;;;6.40;99.90;;;;;;5017904;28;20048;-85
2022/09/30 04:45:20;;;;;;;6.43;3.28;;;6.30;99.90;;;;;;5023048;28;20040;-86
2022/09/30 04:47:47;;;;;;;8.18;3.25;;;6.20;99.90;;;;;;5033804;28;20037;-84
2022/09/30 04:50:13;;;;;;;6.05;2.97;;;6.40;99.90;;;;;;5001816;28;20500;-85
2022/09/30 04:52:43;;;;;;;8.25;3.40;;;6.20;99.90;;;;;;5035142;28;20052;-85
2022/09/30 04:55:10;;;;;;;6.47;2.83;;;6.80;99.90;;;;;;5033496;28;20049;-85
2022/09/30 04:57:37;;;;;;;4.85;2.72;;;6.30;99.90;;;;;;5018063;28;20037;-85
2022/09/30 05:00:07;;;;;;;5.03;2.92;;;6.10;99.90;;;;;;5006480;28;20050;-85
2022/09/30 05:02:34;;;;;;;5.68;3.25;;;6.10;99.90;;;;;;5018801;28;20041;-85
2022/09/30 05:05:02;;;;;;;5.57;3.13;;;6.00;99.90;;;;;;5001532;28;20056;-85
2022/09/30 05:07:30;;;;;;;6.38;3.15;;;6.00;99.90;;;;;;5001800;28;20045;-85
2022/09/30 05:09:57;;;;;;;6.55;2.90;;;5.90;99.90;;;;;;5027106;28;20045;-85
2022/09/30 05:12:25;;;;;;;5.25;2.80;;;6.10;99.90;;;;;;5047480;28;20064;-85
2022/09/30 05:14:52;;;;;;;5.93;2.97;;;6.00;99.90;;;;;;5040596;28;20037;-84
2022/09/30 05:17:19;;;;;;;11.55;3.00;;;6.00;99.90;;;;;;5015298;28;20529;-85
2022/09/30 05:19:46;;;;;;;5.40;2.90;;;6.20;99.90;;;;;;5026065;28;20084;-86
2022/09/30 05:22:13;;;;;;;4.63;2.40;;;6.10;99.90;;;;;;5022806;28;20071;-85
2022/09/30 05:24:40;;;;;;;4.70;2.85;;;6.10;99.90;;;;;;5057221;28;20502;-85
2022/09/30 05:27:07;;;;;;;4.53;2.90;;;6.10;99.90;;;;;;5034806;28;20035;-85
2022/09/30 05:29:34;;;;;;;5.70;2.88;;;6.10;99.90;;;;;;5024451;28;20044;-85
2022/09/30 05:32:00;;;;;;;4.72;2.55;;;6.10;99.90;;;;;;5019266;28;20036;-85
2022/09/30 05:34:27;;;;;;;5.07;2.45;;;6.10;99.90;;;;;;5057365;28;20044;-85
2022/09/30 05:36:54;;;;;;;4.60;2.42;;;7.10;99.90;;;;;;5040282;28;20382;-84
2022/09/30 05:39:20;;;;;;;5.13;2.70;;;6.90;99.90;;;;;;5041202;28;20041;-85
2022/09/30 05:41:47;;;;;;;5.65;2.50;;;6.20;99.90;;;;;;5040994;28;20128;-86
2022/09/30 05:44:14;;;;;;;4.32;2.05;;;7.00;99.90;;;;;;5040482;28;20045;-85
2022/09/30 05:46:42;;;;;;;4.55;2.50;;;6.20;99.90;;;;;;5020255;28;20037;-85
2022/09/30 05:49:09;;;;;;;4.70;2.15;;;6.30;99.90;;;;;;5056307;28;20066;-85
2022/09/30 05:51:35;;;;;;;3.67;2.10;;;6.30;99.90;;;;;;5034767;28;20047;-85
2022/09/30 05:54:02;;;;;;;3.95;2.10;;;6.70;99.90;;;;;;5023829;28;20132;-85
2022/09/30 05:56:29;;;;;;;3.40;1.90;;;6.30;99.90;;;;;;5024350;28;20072;-85
2022/09/30 05:58:55;;;;;;;5.18;2.08;;;6.30;99.90;;;;;;5024039;28;20076;-85
2022/09/30 06:01:22;;;;;;;3.28;1.73;;;6.50;99.90;;;;;;5023396;28;20044;-86
2022/09/30 06:03:49;;;;;;;7.15;2.58;;;6.20;99.90;;;;;;5055891;28;20039;-85
2022/09/30 06:06:16;;;;;;;3.45;1.90;;;7.50;99.90;;;;;;5044798;28;20041;-85
2022/09/30 06:08:43;;;;;;;4.43;2.20;;;6.30;99.90;;;;;;5057088;28;20037;-85
2022/09/30 06:11:12;;;;;;;4.75;2.60;;;6.70;99.90;;;;;;5055888;28;20089;-85
2022/09/30 06:13:40;;;;;;;4.22;2.30;;;6.30;99.90;;;;;;5056063;28;20052;-85
2022/09/30 06:16:08;;;;;;;4.10;2.35;;;6.40;99.90;;;;;;5055657;28;20057;-85
2022/09/30 06:18:38;;;;;;;5.25;2.63;;;6.40;99.90;;;;;;5039985;28;20029;-85
2022/09/30 06:21:05;;;;;;;4.60;2.38;;;6.40;99.90;;;;;;5039789;28;20471;-85
2022/09/30 06:23:33;;;;;;;5.20;2.75;;;6.40;99.90;;;;;;5064561;28;20128;-85
2022/09/30 06:26:02;;;;;;;10.77;2.50;;;6.40;99.90;;;;;;5055533;28;20079;-83
2022/09/30 06:28:29;;;;;;;7.95;2.60;;;6.50;99.90;;;;;;5056298;28;20043;-85
2022/09/30 06:30:55;;;;;;;5.38;2.75;;;6.80;99.90;;;;;;5039615;28;20128;-85
2022/09/30 06:33:22;;;;;;;5.50;3.05;;;6.50;99.90;;;;;;5021625;28;20500;-85
2022/09/30 06:35:50;;;;;;;5.45;2.70;;;6.60;99.90;;;;;;5018752;28;20044;-85
2022/09/30 06:38:16;;;;;;;7.30;2.78;;;6.60;99.90;;;;;;5030728;28;20037;-85
2022/09/30 06:40:48;;;;;;;5.60;3.15;;;6.60;99.90;;;;;;5063113;28;20515;-84
2022/09/30 06:43:19;;;;;;;6.55;3.10;;;7.00;99.90;;;;;;5033323;28;20425;-85
2022/09/30 06:45:47;;;;;;;7.22;3.17;;;6.70;99.90;;;;;;5027854;28;20033;-85
2022/09/30 06:48:15;;;;;;;6.35;3.25;;;7.10;99.90;;;;;;5049994;28;20021;-85
2022/09/30 06:50:42;;;;;;;6.70;3.45;;;7.30;99.90;;;;;;5039007;28;20067;-85
2022/09/30 06:53:11;;;;;;;6.35;3.25;;;6.90;99.90;;;;;;5039117;28;20131;-84
2022/09/30 06:55:38;;;;;;;10.68;3.30;;;6.90;99.90;;;;;;5045827;28;20047;-85
2022/09/30 06:58:10;;;;;;;6.05;3.17;;;7.50;99.90;;;;;;5039056;28;20051;-83
2022/09/30 07:00:36;;;;;;;7.15;3.63;;;7.50;99.90;;;;;;5055427;28;20133;-86
2022/09/30 07:03:10;;;;;;;8.60;3.60;;;7.00;99.90;;;;;;5020391;28;20073;-87
2022/09/30 07:05:37;;;;;;;9.07;3.78;;;7.10;99.90;;;;;;5029649;28;20071;-88
2022/09/30 07:08:04;;;;;;;7.47;3.13;;;7.00;99.90;;;;;;5042151;28;20034;-86
2022/09/30 07:10:31;;;;;;;7.22;3.80;;;7.10;99.90;;;;;;5029170;28;20038;-88
2022/09/30 07:13:01;;;;;;;7.75;3.75;;;7.10;99.90;;;;;;5054261;28;20401;-86
2022/09/30 07:15:28;;;;;;;7.38;3.63;;;7.20;99.90;;;;;;5036103;28;20056;-88
2022/09/30 07:17:55;;;;;;;9.30;4.05;;;7.20;99.90;;;;;;5003858;28;20041;-87
2022/09/30 07:20:23;;;;;;;9.50;3.95;;;7.20;99.90;;;;;;5035375;28;20045;-87
2022/09/30 07:22:50;;;;;;;9.40;4.75;;;7.30;99.90;;;;;;5019667;28;20088;-86
2022/09/30 07:25:17;;;;;;;11.20;5.03;;;7.30;99.90;;;;;;5035947;28;20045;-87
2022/09/30 07:27:44;;;;;;;11.70;4.60;;;7.40;99.90;;;;;;5029850;28;20072;-87
2022/09/30 07:30:10;;;;;;;9.82;4.95;;;7.50;99.90;;;;;;5008941;28;20152;-86
2022/09/30 07:32:37;;;;;;;7.30;4.15;;;7.50;99.90;;;;;;5039246;28;20037;-86
2022/09/30 07:35:05;;;;;;;9.93;4.75;;;7.60;99.90;;;;;;5045175;28;20041;-86
2022/09/30 07:37:34;;;;;;;8.45;4.72;;;7.70;99.90;;;;;;5010767;28;20064;-86
2022/09/30 07:40:04;;;;;;;8.40;4.90;;;7.80;99.90;;;;;;5049551;28;20045;-85
2022/09/30 07:42:31;;;;;;;10.13;5.82;;;7.90;99.90;;;;;;5071310;28;20044;-86
2022/09/30 07:44:58;;;;;;;8.05;4.45;;;7.90;99.90;;;;;;5047178;28;20036;-86
2022/09/30 07:47:24;;;;;;;10.63;5.80;;;8.00;99.90;;;;;;5038370;28;20037;-87
2022/09/30 07:49:51;;;;;;;9.68;4.90;;;8.10;99.90;;;;;;5035761;28;20041;-85
2022/09/30 07:52:18;;;;;;;9.05;5.20;;;8.20;99.90;;;;;;5031125;28;20444;-86
2022/09/30 07:54:54;;;;;;;9.30;4.43;;;8.20;99.90;;;;;;5174054;27;20376;-87
2022/09/30 07:57:21;;;;;;;9.73;5.75;;;8.30;99.90;;;;;;5127577;28;21001;-86
2022/09/30 07:59:47;;;;;;;10.70;5.10;;;8.40;99.90;;;;;;5127598;28;20131;-87
2022/09/30 08:02:17;;;;;;;9.52;5.68;;;8.50;99.90;;;;;;5127968;28;20035;-86
2022/09/30 08:04:44;;;;;;;7.85;4.60;;;8.60;99.90;;;;;;5127898;28;20464;-87
2022/09/30 08:07:12;;;;;;;10.40;5.30;;;8.70;99.90;;;;;;5123911;28;20072;-87
2022/09/30 08:09:39;;;;;;;9.25;5.43;;;8.80;99.90;;;;;;5091237;28;20040;-87
2022/09/30 08:12:05;;;;;;;8.40;4.68;;;8.80;99.90;;;;;;5091000;28;20044;-87
2022/09/30 08:14:32;;;;;;;9.88;4.93;;;8.90;99.90;;;;;;5090690;28;20094;-87
2022/09/30 08:16:59;;;;;;;8.35;4.55;;;9.00;99.90;;;;;;5107659;28;20036;-87
2022/09/30 08:19:28;;;;;;;9.90;4.47;;;9.20;99.90;;;;;;5118397;28;20040;-88
2022/09/30 08:21:55;;;;;;;7.90;4.57;;;9.20;99.90;;;;;;5127534;28;20092;-87
2022/09/30 08:24:22;;;;;;;7.85;4.00;;;9.40;99.90;;;;;;5127125;28;20047;-88
2022/09/30 08:26:50;;;;;;;8.50;4.32;;;9.40;99.90;;;;;;5127963;28;20039;-87
2022/09/30 08:29:17;;;;;;;9.23;4.75;;;9.50;99.90;;;;;;5110792;28;20071;-87
2022/09/30 08:31:44;;;;;;;6.88;3.95;;;9.60;99.90;;;;;;5110618;28;20047;-88
2022/09/30 08:34:11;;;;;;;6.90;4.32;;;9.80;99.90;;;;;;5093729;28;20476;-88
2022/09/30 08:36:37;;;;;;;6.75;3.92;;;9.90;99.90;;;;;;5110164;28;20032;-87
2022/09/30 08:39:04;;;;;;;7.93;4.63;;;10.00;99.90;;;;;;5110482;28;20036;-87
2022/09/30 08:41:37;;;;;;;8.63;4.25;;;10.00;99.90;;;;;;5127267;28;20042;-88
2022/09/30 08:44:25;;;;;;;7.68;4.30;;;10.20;99.90;;;;;;5143829;28;20040;-87
2022/09/30 08:47:21;;;;;;;7.50;4.65;;;10.30;99.90;;;;;;5130261;28;20067;-87
2022/09/30 08:50:19;;;;;;;8.00;4.18;;;10.40;99.90;;;;;;5127276;28;20036;-85
2022/09/30 08:52:58;;;;;;;7.07;4.22;;;10.50;99.90;;;;;;5127237;28;20166;-86
2022/09/30 08:55:32;;;;;;;6.18;4.15;;;10.60;99.90;;;;;;5126041;28;20128;-85
2022/09/30 08:58:01;;;;;;;7.82;4.47;;;10.80;99.90;;;;;;5127048;28;20046;-85
2022/09/30 09:00:28;;;;;;;8.43;4.95;;;10.90;99.90;;;;;;5109997;28;20036;-86
2022/09/30 09:02:57;;;;;;;7.95;4.43;;;10.90;99.90;;;;;;5093799;28;20046;-86
2022/09/30 09:05:46;;;;;;;8.68;4.72;;;11.00;99.90;;;;;;5133131;28;20078;-85
2022/09/30 09:08:37;;;;;;;8.25;4.75;;;11.10;99.90;;;;;;5109461;28;20041;-85
2022/09/30 09:11:36;;;;;;;6.75;3.88;;;11.30;99.90;;;;;;5111957;28;20047;-84
2022/09/30 09:14:23;;;;;;;7.90;4.15;;;11.40;99.90;;;;;;5129977;28;20521;-86
2022/09/30 09:16:59;;;;;;;7.20;4.40;;;11.50;99.90;;;;;;5113292;28;20043;-85
2022/09/30 09:19:56;;;;;;;7.25;4.28;;;11.60;99.90;;;;;;5112319;28;20119;-85
2022/09/30 09:22:25;;;;;;;6.78;3.78;;;11.80;99.90;;;;;;5123445;28;20033;-85
2022/09/30 09:24:53;;;;;;;8.05;4.35;;;11.80;99.90;;;;;;5098427;28;20040;-86
2022/09/30 09:27:46;;;;;;;7.78;4.18;;;12.00;99.90;;;;;;5100374;28;20043;-85
2022/09/30 09:30:17;;;;;;;8.30;4.22;;;12.10;99.90;;;;;;5129843;28;20040;-86
2022/09/30 09:32:56;;;;;;;9.73;4.22;;;12.10;99.90;;;;;;5106816;28;20496;-86
2022/09/30 09:35:51;;;;;;;6.82;3.40;;;12.20;99.90;;;;;;5108745;28;20040;-86
2022/09/30 09:38:34;;;;;;;8.25;4.30;;;12.30;99.90;;;;;;5099242;28;20037;-85
2022/09/30 09:41:38;;;;;;;5.53;3.40;;;12.30;99.90;;;;;;5097489;28;20079;-85
2022/09/30 09:44:10;;;;;;;6.60;3.92;;;12.50;99.90;;;;;;5112317;28;20802;-85
2022/09/30 09:47:14;;;;;;;7.95;4.05;;;12.60;99.90;;;;;;5110505;28;20067;-85
2022/09/30 09:49:46;;;;;;;7.75;3.70;;;12.70;99.90;;;;;;5107607;28;20043;-87
2022/09/30 09:52:28;;;;;;;8.82;3.88;;;12.80;99.90;;;;;;5110195;28;20495;-85
2022/09/30 09:54:57;;;;;;;7.30;4.15;;;13.00;99.90;;;;;;5102748;28;20086;-85
2022/09/30 09:57:32;;;;;;;8.32;4.05;;;13.10;99.90;;;;;;5106410;28;20028;-84
2022/09/30 10:03:18;;;;;;;9.18;3.20;;;13.20;99.90;;;;;;5125502;28;20602;-85
2022/09/30 10:06:00;;;;;;;6.65;3.65;;;13.30;99.90;;;;;;5128742;28;20044;-85
2022/09/30 10:08:30;;;;;;;7.53;3.88;;;13.30;99.90;;;;;;5096604;28;20500;-85
2022/09/30 10:11:03;;;;;;;5.70;2.53;;;13.30;99.90;;;;;;5074823;28;20045;-86
2022/09/30 10:13:36;;;;;;;5.57;2.45;;;13.50;99.90;;;;;;5124202;28;20093;-87
2022/09/30 10:16:04;;;;;;;5.22;2.22;;;13.60;99.90;;;;;;5109779;28;20056;-86
2022/09/30 10:18:37;;;;;;;6.13;2.35;;;13.60;99.90;;;;;;5091131;28;20043;-88
2022/09/30 10:21:20;;;;;;;5.05;2.90;;;13.70;99.90;;;;;;5076408;28;20044;-87
2022/09/30 10:23:47;;;;;;;6.40;2.83;;;13.80;99.90;;;;;;5109953;28;20036;-87
2022/09/30 10:26:14;;;;;;;5.90;2.60;;;13.70;99.90;;;;;;5077900;28;20100;-87
2022/09/30 10:28:49;;;;;;;6.07;2.38;;;13.80;99.90;;;;;;5100413;28;20044;-87
2022/09/30 10:31:21;;;;;;;;;;;13.80;99.90;;;;;;5104526;28;20042;-86
2022/09/30 10:34:03;;;;;;;3.80;2.10;;;13.80;99.90;;;;;;5097172;28;19916;-86
2022/09/30 10:36:35;;;;;;;5.10;2.30;;;13.80;99.90;;;;;;5107033;28;20036;-86
2022/09/30 10:39:25;;;;;;;3.90;1.95;;;13.90;99.90;;;;;;5100204;28;20139;-86
2022/09/30 10:42:09;;;;;;;3.40;1.80;;;13.90;99.90;;;;;;5106056;28;20043;-86
2022/09/30 10:44:44;;;;;;;3.80;1.98;;;14.00;99.90;;;;;;5119535;28;20036;-87
2022/09/30 10:47:18;;;;;;;3.80;2.15;;;14.10;99.90;;;;;;5116451;28;20036;-86
2022/09/30 10:49:52;;;;;;;4.35;2.10;;;14.10;99.90;;;;;;5101584;28;20047;-86
2022/09/30 10:52:23;;;;;;;4.15;2.22;;;14.10;99.90;;;;;;5100190;28;20036;-87
2022/09/30 10:54:51;;;;;;;3.90;1.85;;;14.20;99.90;;;;;;5126232;28;20036;-86
2022/09/30 10:57:24;;;;;;;4.25;2.10;;;14.30;99.90;;;;;;5106250;28;20071;-87
2022/09/30 10:59:59;;;;;;;3.22;1.90;;;14.30;99.90;;;;;;5115600;28;20048;-87
2022/09/30 11:02:57;;;;;;;3.97;2.10;;;14.30;99.90;;;;;;5110770;28;20571;-87
2022/09/30 11:05:39;;;;;;;4.45;2.10;;;14.40;99.90;;;;;;5103728;28;20038;-86
2022/09/30 11:08:21;;;;;;;3.88;2.00;;;14.50;99.90;;;;;;5126736;28;20404;-87
2022/09/30 11:11:19;;;;;;;4.28;1.98;;;14.40;99.90;;;;;;5104676;28;20043;-87
2022/09/30 11:14:10;;;;;;;4.03;2.00;;;14.40;99.90;;;;;;5103534;28;20052;-86
2022/09/30 11:16:46;;;;;;;4.95;1.70;;;14.40;99.90;;;;;;5107063;28;20043;-87
2022/09/30 11:19:29;;;;;;;4.32;2.30;;;14.40;99.90;;;;;;5115829;28;20115;-87
2022/09/30 11:22:20;;;;;;;7.38;2.00;;;14.50;99.90;;;;;;5094995;28;20040;-87
2022/09/30 11:24:51;;;;;;;4.10;2.10;;;14.50;99.90;;;;;;5093063;28;21838;-87
2022/09/30 11:27:55;;;;;;;5.95;1.90;;;14.50;99.90;;;;;;5108741;28;20071;-87
2022/09/30 11:30:44;;;;;;;4.85;1.90;;;14.40;99.90;;;;;;5104781;28;20044;-88
2022/09/30 11:33:22;;;;;;;7.18;1.67;;;14.30;99.90;;;;;;5090337;28;20076;-87
2022/09/30 11:36:13;;;;;;;3.63;2.17;;;14.20;99.90;;;;;;5112527;28;20040;-87
2022/09/30 11:38:40;;;;;;;3.30;1.83;;;14.20;99.90;;;;;;5110232;28;20035;-87
2022/09/30 11:41:31;;;;;;;4.50;2.00;;;14.20;99.90;;;;;;5109510;28;20040;-87
2022/09/30 11:44:20;;;;;;;4.03;1.80;;;14.10;99.90;;;;;;5107357;28;20105;-87
2022/09/30 11:47:32;;;;;;;3.40;1.92;;;14.20;99.90;;;;;;5099176;28;20044;-87
2022/09/30 11:50:15;;;;;;;5.65;2.13;;;14.30;99.90;;;;;;5116770;28;20049;-87
2022/09/30 11:53:11;;;;;;;3.08;1.50;;;14.40;99.90;;;;;;5100542;28;20461;-87
2022/09/30 11:55:40;;;;;;;3.13;1.30;;;14.60;99.90;;;;;;5122524;28;20048;-87
2022/09/30 11:58:11;;;;;;;4.15;1.83;;;14.90;99.90;;;;;;5127002;28;20047;-87
2022/09/30 12:00:43;;;;;;;3.95;1.67;;;15.00;99.90;;;;;;5109861;28;20062;-86
2022/09/30 12:03:21;;;;;;;2.83;1.42;;;15.10;99.90;;;;;;5110044;28;20040;-88
2022/09/30 12:05:57;;;;;;;7.05;1.95;;;15.20;99.90;;;;;;5126789;28;20408;-87
2022/09/30 12:08:37;;;;;;;5.97;2.28;;;15.20;99.90;;;;;;5094310;28;20036;-86
2022/09/30 12:11:13;;;;;;;4.80;2.30;;;15.30;99.90;;;;;;5089877;28;20504;-86
2022/09/30 12:14:02;;;;;;;5.55;2.30;;;15.20;99.90;;;;;;5102790;28;20120;-84
2022/09/30 12:16:32;;;;;;;4.88;2.50;;;15.10;99.90;;;;;;5101884;28;20044;-86
2022/09/30 12:19:44;;;;;;;3.75;2.20;;;15.20;99.90;;;;;;5109439;28;20092;-86
2022/09/30 12:22:16;;;;;;;3.67;2.17;;;15.30;99.90;;;;;;5090325;28;20055;-86
2022/09/30 12:24:44;;;;;;;4.15;2.35;;;15.30;99.90;;;;;;5088985;28;20052;-83
2022/09/30 12:27:32;;;;;;;4.63;2.40;;;15.20;99.90;;;;;;5106193;28;20082;-86
2022/09/30 12:30:16;;;;;;;5.43;2.53;;;15.20;99.90;;;;;;5097194;28;20557;-84
2022/09/30 12:33:09;;;;;;;3.67;1.90;;;15.30;99.90;;;;;;5108879;28;20109;-82
2022/09/30 12:35:55;;;;;;;3.47;2.00;;;15.30;99.90;;;;;;5109231;28;20138;-82
2022/09/30 12:38:32;;;;;;;4.03;2.10;;;15.20;99.90;;;;;;5125495;28;20043;-83
2022/09/30 12:40:59;;;;;;;4.82;2.08;;;15.30;99.90;;;;;;5111322;28;20040;-82
2022/09/30 12:43:57;;;;;;;4.85;2.65;;;15.40;99.90;;;;;;5112632;28;20039;-82
2022/09/30 12:46:44;;;;;;;2.97;1.52;;;15.40;99.90;;;;;;5113022;28;20082;-82
2022/09/30 12:49:18;;;;;;;2.72;1.35;;;15.40;99.90;;;;;;5091756;28;20075;-82
2022/09/30 12:51:51;;;;;;;3.67;1.87;;;15.40;99.90;;;;;;5112673;28;20540;-82
2022/09/30 12:54:32;;;;;;;7.57;2.50;;;15.40;99.90;;;;;;5112767;28;20083;-84
2022/09/30 12:57:03;;;;;;;5.55;3.22;;;15.50;99.90;;;;;;5129631;28;20044;-84
2022/09/30 12:59:33;;;;;;;5.45;2.70;;;15.50;99.90;;;;;;5128900;28;20054;-83
2022/09/30 13:02:03;;;;;;;5.13;2.10;;;15.50;99.90;;;;;;5111644;28;20047;-82
2022/09/30 13:04:33;;;;;;;4.07;1.75;;;15.40;99.90;;;;;;5112471;28;20040;-84
2022/09/30 13:06:59;;;;;;;3.15;1.63;;;15.40;99.90;;;;;;5129044;28;20051;-84
2022/09/30 13:09:30;;;;;;;3.50;1.90;;;15.40;99.90;;;;;;5112242;28;20040;-84
2022/09/30 13:11:57;;;;;;;3.67;1.90;;;15.40;99.90;;;;;;5128765;28;20126;-83
2022/09/30 13:14:31;;;;;;;3.55;1.80;;;15.50;99.90;;;;;;5105646;28;20174;-84
2022/09/30 13:17:04;;;;;;;4.97;2.10;;;15.60;99.90;;;;;;5122947;28;20485;-84
2022/09/30 13:19:39;;;;;;;3.83;2.20;;;15.60;99.90;;;;;;5092611;28;20040;-83
2022/09/30 13:22:18;;;;;;;;;;;15.60;99.90;;;;;;5097879;28;20395;-83
2022/09/30 13:24:59;;;;;;;4.43;2.40;;;15.40;99.90;;;;;;5113279;28;19915;-86
2022/09/30 13:27:50;;;;;;;5.78;3.10;;;15.30;99.90;;;;;;5113528;28;20104;-88
2022/09/30 13:30:16;;;;;;;6.03;3.10;;;15.30;99.90;;;;;;5113677;28;20040;-89
2022/09/30 13:33:25;;;;;;;5.25;2.92;;;15.20;99.90;;;;;;5130208;28;20143;-88